sensor_id;sensor_type;location;lat;lon;timestamp;temperature;humidity
8220;DHT22;4151;51.110;7.020;2023-04-24T00:00:02;10.90;99.90
8220;DHT22;4151;51.110;7.020;2023-04-24T00:02:30;10.80;99.90
8220;DHT22;4151;51.110;7.020;2023-04-24T00:04:57;10.80;99.90
8220;DHT22;4151;51.110;7.020;2023-04-24T00:07:22;10.70;99.90
8220;DHT22;4151;51.110;7.020;2023-04-24T00:09:48;10.80;99.90
8220;DHT22;4151;51.110;7.020;2023-04-24T00:12:13;10.80;99.90
8220;DHT22;4151;51.110;7.020;2023-04-24T00:14:39;10.70;99.90
8220;DHT22;4151;51.110;7.020;2023-04-24T00:17:04;10.80;99.90
8220;DHT22;4151;51.110;7.020;2023-04-24T00:19:30;10.80;99.90
8220;DHT22;4151;51.110;7.020;2023-04-24T00:21:56;10.80;99.90
8220;DHT22;4151;51.110;7.020;2023-04-24T00:24:21;10.90;99.90
8220;DHT22;4151;51.110;7.020;2023-04-24T00:26:47;10.90;99.90
8220;DHT22;4151;51.110;7.020;2023-04-24T00:29:12;11.00;99.90
8220;DHT22;4151;51.110;7.020;2023-04-24T00:31:39;11.00;99.90
8220;DHT22;4151;51.110;7.020;2023-04-24T00:34:05;11.00;99.90
8220;DHT22;4151;51.110;7.020;2023-04-24T00:36:31;11.00;99.90
8220;DHT22;4151;51.110;7.020;2023-04-24T00:38:57;11.00;99.90
8220;DHT22;4151;51.110;7.020;2023-04-24T00:41:24;11.00;99.90
8220;DHT22;4151;51.110;7.020;2023-04-24T00:43:50;11.00;99.90
8220;DHT22;4151;51.110;7.020;2023-04-24T00:46:16;11.00;99.90
8220;DHT22;4151;51.110;7.020;2023-04-24T00:48:43;11.00;99.90
8220;DHT22;4151;51.110;7.020;2023-04-24T00:51:08;11.00;99.90
8220;DHT22;4151;51.110;7.020;2023-04-24T00:53:34;11.10;99.90
8220;DHT22;4151;51.110;7.020;2023-04-24T00:56:00;11.10;99.90
8220;DHT22;4151;51.110;7.020;2023-04-24T00:58:27;11.10;99.90
8220;DHT22;4151;51.110;7.020;2023-04-24T01:00:54;11.10;99.90
8220;DHT22;4151;51.110;7.020;2023-04-24T01:03:22;11.10;99.90
8220;DHT22;4151;51.110;7.020;2023-04-24T01:05:49;11.10;99.90
8220;DHT22;4151;51.110;7.020;2023-04-24T01:08:15;11.10;99.90
8220;DHT22;4151;51.110;7.020;2023-04-24T01:10:41;11.10;99.90
8220;DHT22;4151;51.110;7.020;2023-04-24T01:13:08;11.10;99.90
8220;DHT22;4151;51.110;7.020;2023-04-24T01:15:34;11.10;99.90
8220;DHT22;4151;51.110;7.020;2023-04-24T01:18:00;11.10;99.90
8220;DHT22;4151;51.110;7.020;2023-04-24T01:20:25;11.00;99.90
8220;DHT22;4151;51.110;7.020;2023-04-24T01:22:51;10.90;99.90
8220;DHT22;4151;51.110;7.020;2023-04-24T01:25:18;11.00;99.90
8220;DHT22;4151;51.110;7.020;2023-04-24T01:27:43;11.00;99.90
8220;DHT22;4151;51.110;7.020;2023-04-24T01:30:10;11.00;99.90
8220;DHT22;4151;51.110;7.020;2023-04-24T01:32:36;10.90;99.90
8220;DHT22;4151;51.110;7.020;2023-04-24T01:35:02;10.90;99.90
8220;DHT22;4151;51.110;7.020;2023-04-24T01:37:28;10.90;99.90
8220;DHT22;4151;51.110;7.020;2023-04-24T01:39:53;10.80;99.90
8220;DHT22;4151;51.110;7.020;2023-04-24T01:42:19;10.80;99.90
8220;DHT22;4151;51.110;7.020;2023-04-24T01:44:45;10.60;99.90
8220;DHT22;4151;51.110;7.020;2023-04-24T01:47:11;10.50;99.90
8220;DHT22;4151;51.110;7.020;2023-04-24T01:49:40;10.40;99.90
8220;DHT22;4151;51.110;7.020;2023-04-24T01:52:06;10.40;99.90
8220;DHT22;4151;51.110;7.020;2023-04-24T01:54:31;10.30;99.90
8220;DHT22;4151;51.110;7.020;2023-04-24T01:56:57;10.20;99.90
8220;DHT22;4151;51.110;7.020;2023-04-24T01:59:23;10.10;99.90
8220;DHT22;4151;51.110;7.020;2023-04-24T02:01:50;10.00;99.90
8220;DHT22;4151;51.110;7.020;2023-04-24T02:04:16;9.90;99.90
8220;DHT22;4151;51.110;7.020;2023-04-24T02:06:41;9.90;99.90
8220;DHT22;4151;51.110;7.020;2023-04-24T02:09:07;9.70;99.90
8220;DHT22;4151;51.110;7.020;2023-04-24T02:11:33;9.70;99.90
8220;DHT22;4151;51.110;7.020;2023-04-24T02:13:58;9.60;99.90
8220;DHT22;4151;51.110;7.020;2023-04-24T02:16:24;9.50;99.90
8220;DHT22;4151;51.110;7.020;2023-04-24T02:18:50;9.40;99.90
8220;DHT22;4151;51.110;7.020;2023-04-24T02:21:15;9.40;99.90
8220;DHT22;4151;51.110;7.020;2023-04-24T02:23:41;9.30;99.90
8220;DHT22;4151;51.110;7.020;2023-04-24T02:26:06;9.20;99.90
8220;DHT22;4151;51.110;7.020;2023-04-24T02:28:32;9.20;99.90
8220;DHT22;4151;51.110;7.020;2023-04-24T02:30:57;9.10;99.90
8220;DHT22;4151;51.110;7.020;2023-04-24T02:33:23;9.10;99.90
8220;DHT22;4151;51.110;7.020;2023-04-24T02:35:49;9.10;99.90
8220;DHT22;4151;51.110;7.020;2023-04-24T02:38:15;9.00;99.90
8220;DHT22;4151;51.110;7.020;2023-04-24T02:40:40;9.00;99.90
8220;DHT22;4151;51.110;7.020;2023-04-24T02:43:06;8.90;99.90
8220;DHT22;4151;51.110;7.020;2023-04-24T02:45:31;8.90;99.90
8220;DHT22;4151;51.110;7.020;2023-04-24T02:47:57;8.90;99.90
8220;DHT22;4151;51.110;7.020;2023-04-24T02:50:23;8.90;99.90
8220;DHT22;4151;51.110;7.020;2023-04-24T02:52:48;8.90;99.90
8220;DHT22;4151;51.110;7.020;2023-04-24T02:55:14;9.00;99.90
8220;DHT22;4151;51.110;7.020;2023-04-24T02:57:39;9.00;99.90
8220;DHT22;4151;51.110;7.020;2023-04-24T03:00:05;9.10;99.90
8220;DHT22;4151;51.110;7.020;2023-04-24T03:02:32;9.10;99.90
8220;DHT22;4151;51.110;7.020;2023-04-24T03:04:57;9.10;99.90
8220;DHT22;4151;51.110;7.020;2023-04-24T03:07:23;9.20;99.90
8220;DHT22;4151;51.110;7.020;2023-04-24T03:09:49;9.20;99.90
8220;DHT22;4151;51.110;7.020;2023-04-24T03:12:15;9.20;99.90
8220;DHT22;4151;51.110;7.020;2023-04-24T03:14:43;9.20;99.90
8220;DHT22;4151;51.110;7.020;2023-04-24T03:17:08;9.20;99.90
8220;DHT22;4151;51.110;7.020;2023-04-24T03:19:34;9.20;99.90
8220;DHT22;4151;51.110;7.020;2023-04-24T03:22:02;9.30;99.90
8220;DHT22;4151;51.110;7.020;2023-04-24T03:24:27;9.30;99.90
8220;DHT22;4151;51.110;7.020;2023-04-24T03:26:53;9.30;99.90
8220;DHT22;4151;51.110;7.020;2023-04-24T03:29:19;9.40;99.90
8220;DHT22;4151;51.110;7.020;2023-04-24T03:31:44;9.30;99.90
8220;DHT22;4151;51.110;7.020;2023-04-24T03:34:10;9.40;99.90
8220;DHT22;4151;51.110;7.020;2023-04-24T03:36:36;9.40;99.90
8220;DHT22;4151;51.110;7.020;2023-04-24T03:39:01;9.40;99.90
8220;DHT22;4151;51.110;7.020;2023-04-24T03:41:27;9.40;99.90
8220;DHT22;4151;51.110;7.020;2023-04-24T03:43:52;9.40;99.90
8220;DHT22;4151;51.110;7.020;2023-04-24T03:46:18;9.40;99.90
8220;DHT22;4151;51.110;7.020;2023-04-24T03:48:43;9.40;99.90
8220;DHT22;4151;51.110;7.020;2023-04-24T03:51:09;9.40;99.90
8220;DHT22;4151;51.110;7.020;2023-04-24T03:53:35;9.40;99.90
8220;DHT22;4151;51.110;7.020;2023-04-24T03:56:00;9.40;99.90
8220;DHT22;4151;51.110;7.020;2023-04-24T03:58:26;9.40;99.90
8220;DHT22;4151;51.110;7.020;2023-04-24T04:00:51;9.40;99.90
8220;DHT22;4151;51.110;7.020;2023-04-24T04:03:17;9.40;99.90
8220;DHT22;4151;51.110;7.020;2023-04-24T04:05:43;9.40;99.90
8220;DHT22;4151;51.110;7.020;2023-04-24T04:08:08;9.40;99.90
8220;DHT22;4151;51.110;7.020;2023-04-24T04:10:34;9.40;99.90
8220;DHT22;4151;51.110;7.020;2023-04-24T04:12:59;9.40;99.90
8220;DHT22;4151;51.110;7.020;2023-04-24T04:15:25;9.40;99.90
8220;DHT22;4151;51.110;7.020;2023-04-24T04:17:51;9.40;99.90
8220;DHT22;4151;51.110;7.020;2023-04-24T04:20:16;9.40;99.90
8220;DHT22;4151;51.110;7.020;2023-04-24T04:22:42;9.40;99.90
8220;DHT22;4151;51.110;7.020;2023-04-24T04:25:07;9.40;99.90
8220;DHT22;4151;51.110;7.020;2023-04-24T04:27:34;9.40;99.90
8220;DHT22;4151;51.110;7.020;2023-04-24T04:30:00;9.40;99.90
8220;DHT22;4151;51.110;7.020;2023-04-24T04:32:31;9.40;99.90
8220;DHT22;4151;51.110;7.020;2023-04-24T04:34:58;9.30;99.90
8220;DHT22;4151;51.110;7.020;2023-04-24T04:37:28;9.30;99.90
8220;DHT22;4151;51.110;7.020;2023-04-24T04:39:54;9.30;99.90
8220;DHT22;4151;51.110;7.020;2023-04-24T04:42:19;9.20;99.90
8220;DHT22;4151;51.110;7.020;2023-04-24T04:44:45;9.30;99.90
8220;DHT22;4151;51.110;7.020;2023-04-24T04:47:11;9.30;99.90
8220;DHT22;4151;51.110;7.020;2023-04-24T04:49:38;9.30;99.90
8220;DHT22;4151;51.110;7.020;2023-04-24T04:52:04;9.30;99.90
8220;DHT22;4151;51.110;7.020;2023-04-24T04:54:30;9.30;99.90
8220;DHT22;4151;51.110;7.020;2023-04-24T04:56:56;9.30;99.90
8220;DHT22;4151;51.110;7.020;2023-04-24T04:59:22;9.20;99.90
8220;DHT22;4151;51.110;7.020;2023-04-24T05:01:48;9.10;99.90
8220;DHT22;4151;51.110;7.020;2023-04-24T05:04:13;9.00;99.90
8220;DHT22;4151;51.110;7.020;2023-04-24T05:06:39;9.00;99.90
8220;DHT22;4151;51.110;7.020;2023-04-24T05:09:05;9.00;99.90
8220;DHT22;4151;51.110;7.020;2023-04-24T05:11:30;9.00;99.90
8220;DHT22;4151;51.110;7.020;2023-04-24T05:13:56;9.10;99.90
8220;DHT22;4151;51.110;7.020;2023-04-24T05:16:21;9.10;99.90
8220;DHT22;4151;51.110;7.020;2023-04-24T05:18:47;9.10;99.90
8220;DHT22;4151;51.110;7.020;2023-04-24T05:21:12;9.20;99.90
8220;DHT22;4151;51.110;7.020;2023-04-24T05:23:38;9.20;99.90
8220;DHT22;4151;51.110;7.020;2023-04-24T05:26:04;9.20;99.90
8220;DHT22;4151;51.110;7.020;2023-04-24T05:28:29;9.30;99.90
8220;DHT22;4151;51.110;7.020;2023-04-24T05:30:55;9.30;99.90
8220;DHT22;4151;51.110;7.020;2023-04-24T05:33:21;9.30;99.90
8220;DHT22;4151;51.110;7.020;2023-04-24T05:35:48;9.30;99.90
8220;DHT22;4151;51.110;7.020;2023-04-24T05:38:13;9.20;99.90
8220;DHT22;4151;51.110;7.020;2023-04-24T05:40:39;9.00;99.90
8220;DHT22;4151;51.110;7.020;2023-04-24T05:43:05;8.90;99.90
8220;DHT22;4151;51.110;7.020;2023-04-24T05:45:30;8.80;99.90
8220;DHT22;4151;51.110;7.020;2023-04-24T05:47:57;8.80;99.90
8220;DHT22;4151;51.110;7.020;2023-04-24T05:50:22;8.80;99.90
8220;DHT22;4151;51.110;7.020;2023-04-24T05:52:48;8.70;99.90
8220;DHT22;4151;51.110;7.020;2023-04-24T05:55:13;8.60;99.90
8220;DHT22;4151;51.110;7.020;2023-04-24T05:57:39;8.50;99.90
8220;DHT22;4151;51.110;7.020;2023-04-24T06:00:05;8.40;99.90
8220;DHT22;4151;51.110;7.020;2023-04-24T06:02:31;8.30;99.90
8220;DHT22;4151;51.110;7.020;2023-04-24T06:04:58;8.30;99.90
8220;DHT22;4151;51.110;7.020;2023-04-24T06:07:25;8.30;99.90
8220;DHT22;4151;51.110;7.020;2023-04-24T06:09:51;8.30;99.90
8220;DHT22;4151;51.110;7.020;2023-04-24T06:12:17;8.30;99.90
8220;DHT22;4151;51.110;7.020;2023-04-24T06:14:43;8.30;99.90
8220;DHT22;4151;51.110;7.020;2023-04-24T06:17:09;8.30;99.90
8220;DHT22;4151;51.110;7.020;2023-04-24T06:19:34;8.30;99.90
8220;DHT22;4151;51.110;7.020;2023-04-24T06:22:00;8.30;99.90
8220;DHT22;4151;51.110;7.020;2023-04-24T06:24:29;8.40;99.90
8220;DHT22;4151;51.110;7.020;2023-04-24T06:26:54;8.40;99.90
8220;DHT22;4151;51.110;7.020;2023-04-24T06:29:20;8.50;99.90
8220;DHT22;4151;51.110;7.020;2023-04-24T06:31:45;8.50;99.90
8220;DHT22;4151;51.110;7.020;2023-04-24T06:34:11;8.60;99.90
8220;DHT22;4151;51.110;7.020;2023-04-24T06:36:36;8.60;99.90
8220;DHT22;4151;51.110;7.020;2023-04-24T06:39:02;8.60;99.90
8220;DHT22;4151;51.110;7.020;2023-04-24T06:41:28;8.60;99.90
8220;DHT22;4151;51.110;7.020;2023-04-24T06:43:54;8.50;99.90
8220;DHT22;4151;51.110;7.020;2023-04-24T06:46:20;8.40;99.90
8220;DHT22;4151;51.110;7.020;2023-04-24T06:48:49;8.30;99.90
8220;DHT22;4151;51.110;7.020;2023-04-24T06:51:14;8.20;99.90
8220;DHT22;4151;51.110;7.020;2023-04-24T06:53:40;8.10;99.90
8220;DHT22;4151;51.110;7.020;2023-04-24T06:56:06;8.10;99.90
8220;DHT22;4151;51.110;7.020;2023-04-24T06:58:32;8.10;99.90
8220;DHT22;4151;51.110;7.020;2023-04-24T07:00:57;8.10;99.90
8220;DHT22;4151;51.110;7.020;2023-04-24T07:03:23;8.00;99.90
8220;DHT22;4151;51.110;7.020;2023-04-24T07:05:48;8.00;99.90
8220;DHT22;4151;51.110;7.020;2023-04-24T07:08:14;8.00;99.90
8220;DHT22;4151;51.110;7.020;2023-04-24T07:10:42;8.00;99.90
8220;DHT22;4151;51.110;7.020;2023-04-24T07:13:08;7.90;99.90
8220;DHT22;4151;51.110;7.020;2023-04-24T07:15:34;7.80;99.90
8220;DHT22;4151;51.110;7.020;2023-04-24T07:18:00;7.80;99.90
8220;DHT22;4151;51.110;7.020;2023-04-24T07:20:25;7.80;99.90
8220;DHT22;4151;51.110;7.020;2023-04-24T07:22:51;7.80;99.90
8220;DHT22;4151;51.110;7.020;2023-04-24T07:25:19;7.80;99.90
8220;DHT22;4151;51.110;7.020;2023-04-24T07:27:44;7.70;99.90
8220;DHT22;4151;51.110;7.020;2023-04-24T07:30:10;7.70;99.90
8220;DHT22;4151;51.110;7.020;2023-04-24T07:32:36;7.70;99.90
8220;DHT22;4151;51.110;7.020;2023-04-24T07:35:02;7.60;99.90
8220;DHT22;4151;51.110;7.020;2023-04-24T07:37:28;7.60;99.90
8220;DHT22;4151;51.110;7.020;2023-04-24T07:39:54;7.60;99.90
8220;DHT22;4151;51.110;7.020;2023-04-24T07:42:19;7.60;99.90
8220;DHT22;4151;51.110;7.020;2023-04-24T07:44:45;7.60;99.90
8220;DHT22;4151;51.110;7.020;2023-04-24T07:47:13;7.60;99.90
8220;DHT22;4151;51.110;7.020;2023-04-24T07:49:41;7.60;99.90
8220;DHT22;4151;51.110;7.020;2023-04-24T07:52:07;7.60;99.90
8220;DHT22;4151;51.110;7.020;2023-04-24T07:54:33;7.50;99.90
8220;DHT22;4151;51.110;7.020;2023-04-24T07:56:58;7.40;99.90
8220;DHT22;4151;51.110;7.020;2023-04-24T07:59:25;7.40;99.90
8220;DHT22;4151;51.110;7.020;2023-04-24T08:01:51;7.40;99.90
8220;DHT22;4151;51.110;7.020;2023-04-24T08:04:16;7.40;99.90
8220;DHT22;4151;51.110;7.020;2023-04-24T08:06:43;7.40;99.90
8220;DHT22;4151;51.110;7.020;2023-04-24T08:09:09;7.30;99.90
8220;DHT22;4151;51.110;7.020;2023-04-24T08:11:35;7.10;99.90
8220;DHT22;4151;51.110;7.020;2023-04-24T08:14:00;6.80;99.90
8220;DHT22;4151;51.110;7.020;2023-04-24T08:16:26;6.70;99.90
8220;DHT22;4151;51.110;7.020;2023-04-24T08:18:53;6.70;99.90
8220;DHT22;4151;51.110;7.020;2023-04-24T08:21:18;6.60;99.90
8220;DHT22;4151;51.110;7.020;2023-04-24T08:23:45;6.60;99.90
8220;DHT22;4151;51.110;7.020;2023-04-24T08:26:12;6.60;99.90
8220;DHT22;4151;51.110;7.020;2023-04-24T08:28:38;6.60;99.90
8220;DHT22;4151;51.110;7.020;2023-04-24T08:31:03;6.70;99.90
8220;DHT22;4151;51.110;7.020;2023-04-24T08:33:29;6.70;99.90
8220;DHT22;4151;51.110;7.020;2023-04-24T08:36:02;6.70;99.90
8220;DHT22;4151;51.110;7.020;2023-04-24T08:38:27;6.80;99.90
8220;DHT22;4151;51.110;7.020;2023-04-24T08:40:53;6.80;99.90
8220;DHT22;4151;51.110;7.020;2023-04-24T08:43:21;6.80;99.90
8220;DHT22;4151;51.110;7.020;2023-04-24T08:45:47;6.80;99.90
8220;DHT22;4151;51.110;7.020;2023-04-24T08:48:13;6.90;99.90
8220;DHT22;4151;51.110;7.020;2023-04-24T08:50:40;6.90;99.90
8220;DHT22;4151;51.110;7.020;2023-04-24T08:53:08;6.90;99.90
8220;DHT22;4151;51.110;7.020;2023-04-24T08:55:34;6.90;99.90
8220;DHT22;4151;51.110;7.020;2023-04-24T08:58:01;7.00;99.90
8220;DHT22;4151;51.110;7.020;2023-04-24T09:00:28;7.00;99.90
8220;DHT22;4151;51.110;7.020;2023-04-24T09:02:54;7.00;99.90
8220;DHT22;4151;51.110;7.020;2023-04-24T09:05:21;7.10;99.90
8220;DHT22;4151;51.110;7.020;2023-04-24T09:07:54;7.10;99.90
8220;DHT22;4151;51.110;7.020;2023-04-24T09:10:21;7.10;99.90
8220;DHT22;4151;51.110;7.020;2023-04-24T09:12:47;7.10;99.90
8220;DHT22;4151;51.110;7.020;2023-04-24T09:15:15;7.20;99.90
8220;DHT22;4151;51.110;7.020;2023-04-24T09:17:40;7.20;99.90
8220;DHT22;4151;51.110;7.020;2023-04-24T09:20:06;7.20;99.90
8220;DHT22;4151;51.110;7.020;2023-04-24T09:22:32;7.20;99.90
8220;DHT22;4151;51.110;7.020;2023-04-24T09:25:06;7.30;99.90
8220;DHT22;4151;51.110;7.020;2023-04-24T09:27:33;7.30;99.90
8220;DHT22;4151;51.110;7.020;2023-04-24T09:29:59;7.30;99.90
8220;DHT22;4151;51.110;7.020;2023-04-24T09:32:26;7.30;99.90
8220;DHT22;4151;51.110;7.020;2023-04-24T09:35:11;7.30;99.90
8220;DHT22;4151;51.110;7.020;2023-04-24T09:37:39;7.30;99.90
8220;DHT22;4151;51.110;7.020;2023-04-24T09:42:44;7.30;99.90
8220;DHT22;4151;51.110;7.020;2023-04-24T09:45:10;7.30;99.90
8220;DHT22;4151;51.110;7.020;2023-04-24T09:47:39;7.30;99.90
8220;DHT22;4151;51.110;7.020;2023-04-24T09:50:16;7.30;99.90
8220;DHT22;4151;51.110;7.020;2023-04-24T09:52:57;7.30;99.90
8220;DHT22;4151;51.110;7.020;2023-04-24T09:55:22;7.40;99.90
8220;DHT22;4151;51.110;7.020;2023-04-24T09:57:53;7.40;99.90
8220;DHT22;4151;51.110;7.020;2023-04-24T10:00:30;7.40;99.90
8220;DHT22;4151;51.110;7.020;2023-04-24T10:03:00;7.40;99.90
8220;DHT22;4151;51.110;7.020;2023-04-24T10:05:29;7.40;99.90
8220;DHT22;4151;51.110;7.020;2023-04-24T10:08:01;7.50;99.90
8220;DHT22;4151;51.110;7.020;2023-04-24T10:10:27;7.50;99.90
8220;DHT22;4151;51.110;7.020;2023-04-24T10:12:53;7.50;99.90
8220;DHT22;4151;51.110;7.020;2023-04-24T10:15:20;7.50;99.90
8220;DHT22;4151;51.110;7.020;2023-04-24T10:17:50;7.60;99.90
8220;DHT22;4151;51.110;7.020;2023-04-24T10:20:21;7.70;99.90
8220;DHT22;4151;51.110;7.020;2023-04-24T10:22:52;7.70;99.90
8220;DHT22;4151;51.110;7.020;2023-04-24T10:25:22;7.70;99.90
8220;DHT22;4151;51.110;7.020;2023-04-24T10:27:50;7.80;99.90
8220;DHT22;4151;51.110;7.020;2023-04-24T10:30:16;7.80;99.90
8220;DHT22;4151;51.110;7.020;2023-04-24T10:32:42;8.00;99.90
8220;DHT22;4151;51.110;7.020;2023-04-24T10:35:09;8.00;99.90
8220;DHT22;4151;51.110;7.020;2023-04-24T10:37:38;8.00;99.90
8220;DHT22;4151;51.110;7.020;2023-04-24T10:40:06;8.10;99.90
8220;DHT22;4151;51.110;7.020;2023-04-24T10:42:33;8.20;99.90
8220;DHT22;4151;51.110;7.020;2023-04-24T10:44:58;8.20;99.90
8220;DHT22;4151;51.110;7.020;2023-04-24T10:47:27;8.40;99.90
8220;DHT22;4151;51.110;7.020;2023-04-24T10:49:53;8.40;99.90
8220;DHT22;4151;51.110;7.020;2023-04-24T10:52:19;8.40;99.90
8220;DHT22;4151;51.110;7.020;2023-04-24T10:54:46;8.40;99.90
8220;DHT22;4151;51.110;7.020;2023-04-24T10:59:45;8.30;99.90
8220;DHT22;4151;51.110;7.020;2023-04-24T11:02:10;8.40;99.90
8220;DHT22;4151;51.110;7.020;2023-04-24T11:04:39;8.30;99.90
8220;DHT22;4151;51.110;7.020;2023-04-24T11:07:05;8.40;99.90
8220;DHT22;4151;51.110;7.020;2023-04-24T11:09:31;8.40;99.90
8220;DHT22;4151;51.110;7.020;2023-04-24T11:12:08;8.50;99.90
8220;DHT22;4151;51.110;7.020;2023-04-24T11:17:35;8.70;99.90
8220;DHT22;4151;51.110;7.020;2023-04-24T11:20:07;8.70;99.90
8220;DHT22;4151;51.110;7.020;2023-04-24T11:22:35;8.70;99.90
8220;DHT22;4151;51.110;7.020;2023-04-24T11:25:03;8.70;99.90
8220;DHT22;4151;51.110;7.020;2023-04-24T11:27:39;8.70;99.90
8220;DHT22;4151;51.110;7.020;2023-04-24T11:30:06;8.70;99.90
8220;DHT22;4151;51.110;7.020;2023-04-24T11:35:05;8.90;99.90
8220;DHT22;4151;51.110;7.020;2023-04-24T11:37:39;9.10;99.90
8220;DHT22;4151;51.110;7.020;2023-04-24T11:40:07;9.50;99.90
8220;DHT22;4151;51.110;7.020;2023-04-24T11:42:37;9.70;99.90
8220;DHT22;4151;51.110;7.020;2023-04-24T11:45:08;9.90;99.90
8220;DHT22;4151;51.110;7.020;2023-04-24T11:47:34;10.20;99.90
8220;DHT22;4151;51.110;7.020;2023-04-24T11:50:01;10.20;99.90
8220;DHT22;4151;51.110;7.020;2023-04-24T11:52:28;10.30;99.90
8220;DHT22;4151;51.110;7.020;2023-04-24T11:54:54;10.40;99.90
8220;DHT22;4151;51.110;7.020;2023-04-24T11:57:21;10.50;99.90
8220;DHT22;4151;51.110;7.020;2023-04-24T11:59:47;10.40;99.90
8220;DHT22;4151;51.110;7.020;2023-04-24T12:02:26;10.30;99.90
8220;DHT22;4151;51.110;7.020;2023-04-24T12:04:53;10.20;99.90
8220;DHT22;4151;51.110;7.020;2023-04-24T12:07:19;10.30;99.90
8220;DHT22;4151;51.110;7.020;2023-04-24T12:09:50;10.10;99.90
8220;DHT22;4151;51.110;7.020;2023-04-24T12:12:17;10.10;99.90
8220;DHT22;4151;51.110;7.020;2023-04-24T12:14:45;10.10;99.90
8220;DHT22;4151;51.110;7.020;2023-04-24T12:17:10;10.20;99.90
8220;DHT22;4151;51.110;7.020;2023-04-24T12:19:36;10.10;99.90
8220;DHT22;4151;51.110;7.020;2023-04-24T12:22:03;10.10;99.90
8220;DHT22;4151;51.110;7.020;2023-04-24T12:24:30;10.20;99.90
8220;DHT22;4151;51.110;7.020;2023-04-24T12:26:56;10.50;99.90
8220;DHT22;4151;51.110;7.020;2023-04-24T12:29:23;10.50;99.90
8220;DHT22;4151;51.110;7.020;2023-04-24T12:31:50;10.40;99.90
8220;DHT22;4151;51.110;7.020;2023-04-24T12:34:23;10.40;99.90
8220;DHT22;4151;51.110;7.020;2023-04-24T12:36:50;10.30;99.90
8220;DHT22;4151;51.110;7.020;2023-04-24T12:39:19;10.20;99.90
8220;DHT22;4151;51.110;7.020;2023-04-24T12:41:57;10.20;99.90
8220;DHT22;4151;51.110;7.020;2023-04-24T12:44:33;10.30;99.90
8220;DHT22;4151;51.110;7.020;2023-04-24T12:47:00;10.60;99.90
8220;DHT22;4151;51.110;7.020;2023-04-24T12:49:26;10.80;99.90
8220;DHT22;4151;51.110;7.020;2023-04-24T12:51:51;10.90;99.90
8220;DHT22;4151;51.110;7.020;2023-04-24T12:54:17;10.90;99.90
8220;DHT22;4151;51.110;7.020;2023-04-24T12:56:42;10.70;99.90
8220;DHT22;4151;51.110;7.020;2023-04-24T12:59:08;10.60;99.90
8220;DHT22;4151;51.110;7.020;2023-04-24T13:01:33;10.40;99.90
8220;DHT22;4151;51.110;7.020;2023-04-24T13:03:59;10.40;99.90
8220;DHT22;4151;51.110;7.020;2023-04-24T13:06:24;10.70;99.90
8220;DHT22;4151;51.110;7.020;2023-04-24T13:08:51;11.20;99.90
8220;DHT22;4151;51.110;7.020;2023-04-24T13:11:17;11.60;99.90
8220;DHT22;4151;51.110;7.020;2023-04-24T13:13:43;12.10;99.90
8220;DHT22;4151;51.110;7.020;2023-04-24T13:16:09;12.00;99.90
8220;DHT22;4151;51.110;7.020;2023-04-24T13:18:34;11.60;99.90
8220;DHT22;4151;51.110;7.020;2023-04-24T13:21:00;11.30;99.90
8220;DHT22;4151;51.110;7.020;2023-04-24T13:23:26;10.90;99.90
8220;DHT22;4151;51.110;7.020;2023-04-24T13:25:51;10.70;99.90
8220;DHT22;4151;51.110;7.020;2023-04-24T13:28:17;10.60;99.90
8220;DHT22;4151;51.110;7.020;2023-04-24T13:30:43;10.70;99.90
8220;DHT22;4151;51.110;7.020;2023-04-24T13:33:08;10.90;99.90
8220;DHT22;4151;51.110;7.020;2023-04-24T13:35:34;11.00;99.90
8220;DHT22;4151;51.110;7.020;2023-04-24T13:38:00;11.10;99.90
8220;DHT22;4151;51.110;7.020;2023-04-24T13:40:27;11.50;99.90
8220;DHT22;4151;51.110;7.020;2023-04-24T13:42:52;12.20;99.90
8220;DHT22;4151;51.110;7.020;2023-04-24T13:45:18;12.30;99.90
8220;DHT22;4151;51.110;7.020;2023-04-24T13:47:44;12.00;99.90
8220;DHT22;4151;51.110;7.020;2023-04-24T13:50:09;12.10;99.90
8220;DHT22;4151;51.110;7.020;2023-04-24T13:52:35;11.90;99.90
8220;DHT22;4151;51.110;7.020;2023-04-24T13:55:01;11.60;99.90
8220;DHT22;4151;51.110;7.020;2023-04-24T13:57:26;11.30;99.90
8220;DHT22;4151;51.110;7.020;2023-04-24T13:59:53;11.00;99.90
8220;DHT22;4151;51.110;7.020;2023-04-24T14:02:21;10.90;99.90
8220;DHT22;4151;51.110;7.020;2023-04-24T14:04:46;11.00;99.90
8220;DHT22;4151;51.110;7.020;2023-04-24T14:07:13;11.30;99.90
8220;DHT22;4151;51.110;7.020;2023-04-24T14:09:39;11.30;99.90
8220;DHT22;4151;51.110;7.020;2023-04-24T14:12:04;11.50;99.90
8220;DHT22;4151;51.110;7.020;2023-04-24T14:14:31;11.70;99.90
8220;DHT22;4151;51.110;7.020;2023-04-24T14:16:57;11.80;99.90
8220;DHT22;4151;51.110;7.020;2023-04-24T14:19:22;12.00;99.90
8220;DHT22;4151;51.110;7.020;2023-04-24T14:21:49;12.00;99.90
8220;DHT22;4151;51.110;7.020;2023-04-24T14:24:14;11.80;99.90
8220;DHT22;4151;51.110;7.020;2023-04-24T14:26:40;11.60;99.90
8220;DHT22;4151;51.110;7.020;2023-04-24T14:29:06;11.50;99.90
8220;DHT22;4151;51.110;7.020;2023-04-24T14:31:32;11.30;99.90
8220;DHT22;4151;51.110;7.020;2023-04-24T14:33:57;11.40;99.90
8220;DHT22;4151;51.110;7.020;2023-04-24T14:36:23;11.40;99.90
8220;DHT22;4151;51.110;7.020;2023-04-24T14:38:49;11.60;99.90
8220;DHT22;4151;51.110;7.020;2023-04-24T14:41:15;11.60;99.90
8220;DHT22;4151;51.110;7.020;2023-04-24T14:43:40;11.50;99.90
8220;DHT22;4151;51.110;7.020;2023-04-24T14:46:06;11.50;99.90
8220;DHT22;4151;51.110;7.020;2023-04-24T14:48:32;11.50;99.90
8220;DHT22;4151;51.110;7.020;2023-04-24T14:50:58;11.30;99.90
8220;DHT22;4151;51.110;7.020;2023-04-24T14:53:23;11.50;99.90
8220;DHT22;4151;51.110;7.020;2023-04-24T14:55:49;11.60;99.90
8220;DHT22;4151;51.110;7.020;2023-04-24T14:58:15;11.80;99.90
8220;DHT22;4151;51.110;7.020;2023-04-24T15:00:40;11.90;99.90
8220;DHT22;4151;51.110;7.020;2023-04-24T15:03:06;11.80;99.90
8220;DHT22;4151;51.110;7.020;2023-04-24T15:05:32;12.00;99.90
8220;DHT22;4151;51.110;7.020;2023-04-24T15:07:58;11.80;99.90
8220;DHT22;4151;51.110;7.020;2023-04-24T15:10:23;12.00;99.90
8220;DHT22;4151;51.110;7.020;2023-04-24T15:12:50;11.90;99.90
8220;DHT22;4151;51.110;7.020;2023-04-24T15:15:16;12.10;99.90
8220;DHT22;4151;51.110;7.020;2023-04-24T15:17:42;12.60;99.90
8220;DHT22;4151;51.110;7.020;2023-04-24T15:20:08;13.60;99.90
8220;DHT22;4151;51.110;7.020;2023-04-24T15:22:33;14.40;99.90
8220;DHT22;4151;51.110;7.020;2023-04-24T15:24:59;13.90;99.90
8220;DHT22;4151;51.110;7.020;2023-04-24T15:27:25;13.60;99.90
8220;DHT22;4151;51.110;7.020;2023-04-24T15:29:50;13.80;99.90
8220;DHT22;4151;51.110;7.020;2023-04-24T15:32:16;14.20;99.90
8220;DHT22;4151;51.110;7.020;2023-04-24T15:34:41;14.80;99.90
8220;DHT22;4151;51.110;7.020;2023-04-24T15:37:07;14.20;99.90
8220;DHT22;4151;51.110;7.020;2023-04-24T15:39:33;14.60;99.90
8220;DHT22;4151;51.110;7.020;2023-04-24T15:41:59;15.40;99.90
8220;DHT22;4151;51.110;7.020;2023-04-24T15:44:25;15.70;99.90
8220;DHT22;4151;51.110;7.020;2023-04-24T15:46:51;15.20;99.90
8220;DHT22;4151;51.110;7.020;2023-04-24T15:49:17;14.20;99.90
8220;DHT22;4151;51.110;7.020;2023-04-24T15:51:43;12.80;99.90
8220;DHT22;4151;51.110;7.020;2023-04-24T15:54:08;12.50;99.90
8220;DHT22;4151;51.110;7.020;2023-04-24T15:56:34;12.90;99.90
8220;DHT22;4151;51.110;7.020;2023-04-24T15:59:01;13.70;99.90
8220;DHT22;4151;51.110;7.020;2023-04-24T16:01:29;13.60;99.90
8220;DHT22;4151;51.110;7.020;2023-04-24T16:03:55;13.00;99.90
8220;DHT22;4151;51.110;7.020;2023-04-24T16:06:21;12.50;99.90
8220;DHT22;4151;51.110;7.020;2023-04-24T16:08:46;12.20;99.90
8220;DHT22;4151;51.110;7.020;2023-04-24T16:11:12;12.10;99.90
8220;DHT22;4151;51.110;7.020;2023-04-24T16:13:37;12.00;99.90
8220;DHT22;4151;51.110;7.020;2023-04-24T16:16:03;11.80;99.90